sensor_id;sensor_type;location;lat;lon;timestamp;P1;durP1;ratioP1;P2;durP2;ratioP2
52136;SDS011;38130;49.012;8.368;2022-08-18T00:00:16;4.80;;;4.38;;
52136;SDS011;38130;49.012;8.368;2022-08-18T00:02:45;5.35;;;4.88;;
52136;SDS011;38130;49.012;8.368;2022-08-18T00:05:26;5.10;;;4.65;;
52136;SDS011;38130;49.012;8.368;2022-08-18T00:07:56;5.03;;;4.53;;
52136;SDS011;38130;49.012;8.368;2022-08-18T00:10:23;4.72;;;4.20;;
52136;SDS011;38130;49.012;8.368;2022-08-18T00:12:50;6.18;;;4.50;;
52136;SDS011;38130;49.012;8.368;2022-08-18T00:15:23;5.03;;;4.27;;
52136;SDS011;38130;49.012;8.368;2022-08-18T00:17:51;4.93;;;4.43;;
52136;SDS011;38130;49.012;8.368;2022-08-18T00:20:19;4.70;;;4.30;;
52136;SDS011;38130;49.012;8.368;2022-08-18T00:22:47;4.53;;;4.13;;
52136;SDS011;38130;49.012;8.368;2022-08-18T00:25:15;6.28;;;5.22;;
52136;SDS011;38130;49.012;8.368;2022-08-18T00:27:43;6.03;;;4.82;;
52136;SDS011;38130;49.012;8.368;2022-08-18T00:30:11;7.22;;;5.25;;
52136;SDS011;38130;49.012;8.368;2022-08-18T00:32:41;5.38;;;4.88;;
52136;SDS011;38130;49.012;8.368;2022-08-18T00:35:20;5.75;;;5.18;;
52136;SDS011;38130;49.012;8.368;2022-08-18T00:37:55;5.68;;;5.07;;
52136;SDS011;38130;49.012;8.368;2022-08-18T00:40:26;5.63;;;4.57;;
52136;SDS011;38130;49.012;8.368;2022-08-18T00:43:01;6.22;;;4.63;;
52136;SDS011;38130;49.012;8.368;2022-08-18T00:45:32;5.25;;;4.72;;
52136;SDS011;38130;49.012;8.368;2022-08-18T00:48:02;6.00;;;5.40;;
52136;SDS011;38130;49.012;8.368;2022-08-18T00:50:34;8.13;;;5.40;;
52136;SDS011;38130;49.012;8.368;2022-08-18T00:53:10;7.90;;;5.45;;
52136;SDS011;38130;49.012;8.368;2022-08-18T00:55:45;5.47;;;4.97;;
52136;SDS011;38130;49.012;8.368;2022-08-18T00:58:21;6.45;;;5.85;;
52136;SDS011;38130;49.012;8.368;2022-08-18T01:00:53;7.55;;;6.38;;
52136;SDS011;38130;49.012;8.368;2022-08-18T01:03:20;5.65;;;5.10;;
52136;SDS011;38130;49.012;8.368;2022-08-18T01:06:03;5.80;;;4.95;;
52136;SDS011;38130;49.012;8.368;2022-08-18T01:08:46;6.78;;;5.80;;
52136;SDS011;38130;49.012;8.368;2022-08-18T01:11:13;5.82;;;5.32;;
52136;SDS011;38130;49.012;8.368;2022-08-18T01:13:40;7.32;;;5.95;;
52136;SDS011;38130;49.012;8.368;2022-08-18T01:16:08;6.07;;;5.43;;
52136;SDS011;38130;49.012;8.368;2022-08-18T01:18:53;5.97;;;5.38;;
52136;SDS011;38130;49.012;8.368;2022-08-18T01:21:40;6.10;;;5.50;;
52136;SDS011;38130;49.012;8.368;2022-08-18T01:24:18;6.75;;;6.15;;
52136;SDS011;38130;49.012;8.368;2022-08-18T01:26:47;6.43;;;5.82;;
52136;SDS011;38130;49.012;8.368;2022-08-18T01:29:17;6.35;;;5.35;;
52136;SDS011;38130;49.012;8.368;2022-08-18T01:31:49;7.57;;;6.32;;
52136;SDS011;38130;49.012;8.368;2022-08-18T01:34:22;5.75;;;5.15;;
52136;SDS011;38130;49.012;8.368;2022-08-18T01:36:51;7.00;;;5.55;;
52136;SDS011;38130;49.012;8.368;2022-08-18T01:39:20;6.75;;;6.05;;
52136;SDS011;38130;49.012;8.368;2022-08-18T01:42:07;6.28;;;5.68;;
52136;SDS011;38130;49.012;8.368;2022-08-18T01:44:33;5.85;;;5.25;;
52136;SDS011;38130;49.012;8.368;2022-08-18T01:47:00;6.10;;;5.50;;
52136;SDS011;38130;49.012;8.368;2022-08-18T01:49:26;6.57;;;5.50;;
52136;SDS011;38130;49.012;8.368;2022-08-18T01:51:56;7.68;;;5.93;;
52136;SDS011;38130;49.012;8.368;2022-08-18T01:54:22;7.28;;;5.90;;
52136;SDS011;38130;49.012;8.368;2022-08-18T01:56:49;8.25;;;6.00;;
52136;SDS011;38130;49.012;8.368;2022-08-18T01:59:17;5.97;;;5.45;;
52136;SDS011;38130;49.012;8.368;2022-08-18T02:01:45;6.55;;;5.80;;
52136;SDS011;38130;49.012;8.368;2022-08-18T02:04:18;9.38;;;5.75;;
52136;SDS011;38130;49.012;8.368;2022-08-18T02:07:04;7.35;;;6.68;;
52136;SDS011;38130;49.012;8.368;2022-08-18T02:09:34;6.43;;;5.82;;
52136;SDS011;38130;49.012;8.368;2022-08-18T02:12:03;7.80;;;6.78;;
52136;SDS011;38130;49.012;8.368;2022-08-18T02:14:31;7.75;;;5.72;;
52136;SDS011;38130;49.012;8.368;2022-08-18T02:16:58;7.78;;;6.05;;
52136;SDS011;38130;49.012;8.368;2022-08-18T02:19:34;6.57;;;5.97;;
52136;SDS011;38130;49.012;8.368;2022-08-18T02:22:06;7.38;;;6.50;;
52136;SDS011;38130;49.012;8.368;2022-08-18T02:24:34;8.27;;;6.65;;
52136;SDS011;38130;49.012;8.368;2022-08-18T02:27:01;7.28;;;6.57;;
52136;SDS011;38130;49.012;8.368;2022-08-18T02:29:28;7.65;;;6.78;;
52136;SDS011;38130;49.012;8.368;2022-08-18T02:31:54;8.73;;;6.75;;
52136;SDS011;38130;49.012;8.368;2022-08-18T02:34:21;7.82;;;7.03;;
52136;SDS011;38130;49.012;8.368;2022-08-18T02:36:48;8.02;;;7.10;;
52136;SDS011;38130;49.012;8.368;2022-08-18T02:39:14;8.88;;;7.35;;
52136;SDS011;38130;49.012;8.368;2022-08-18T02:41:41;7.95;;;7.15;;
52136;SDS011;38130;49.012;8.368;2022-08-18T02:44:07;7.60;;;6.57;;
52136;SDS011;38130;49.012;8.368;2022-08-18T02:46:35;8.60;;;7.47;;
52136;SDS011;38130;49.012;8.368;2022-08-18T02:49:03;7.55;;;6.85;;
52136;SDS011;38130;49.012;8.368;2022-08-18T02:51:31;7.47;;;6.78;;
52136;SDS011;38130;49.012;8.368;2022-08-18T02:53:57;8.48;;;7.25;;
52136;SDS011;38130;49.012;8.368;2022-08-18T02:56:28;8.43;;;7.15;;
52136;SDS011;38130;49.012;8.368;2022-08-18T02:59:06;8.52;;;7.70;;
52136;SDS011;38130;49.012;8.368;2022-08-18T03:01:36;7.78;;;7.07;;
52136;SDS011;38130;49.012;8.368;2022-08-18T03:04:05;12.32;;;7.60;;
52136;SDS011;38130;49.012;8.368;2022-08-18T03:06:34;9.77;;;8.02;;
52136;SDS011;38130;49.012;8.368;2022-08-18T03:09:03;8.45;;;7.43;;
52136;SDS011;38130;49.012;8.368;2022-08-18T03:11:33;8.10;;;7.30;;
52136;SDS011;38130;49.012;8.368;2022-08-18T03:14:01;7.93;;;7.00;;
52136;SDS011;38130;49.012;8.368;2022-08-18T03:16:28;8.70;;;7.13;;
52136;SDS011;38130;49.012;8.368;2022-08-18T03:18:58;7.85;;;6.78;;
52136;SDS011;38130;49.012;8.368;2022-08-18T03:21:27;8.95;;;7.82;;
52136;SDS011;38130;49.012;8.368;2022-08-18T03:23:55;10.10;;;8.05;;
52136;SDS011;38130;49.012;8.368;2022-08-18T03:26:27;8.27;;;6.97;;
52136;SDS011;38130;49.012;8.368;2022-08-18T03:28:55;8.05;;;7.35;;
52136;SDS011;38130;49.012;8.368;2022-08-18T03:31:24;9.45;;;7.40;;
52136;SDS011;38130;49.012;8.368;2022-08-18T03:33:53;10.70;;;7.32;;
52136;SDS011;38130;49.012;8.368;2022-08-18T03:36:26;7.85;;;7.05;;
52136;SDS011;38130;49.012;8.368;2022-08-18T03:38:54;8.23;;;7.35;;
52136;SDS011;38130;49.012;8.368;2022-08-18T03:41:22;8.00;;;6.85;;
52136;SDS011;38130;49.012;8.368;2022-08-18T03:44:13;7.68;;;6.93;;
52136;SDS011;38130;49.012;8.368;2022-08-18T03:46:41;7.95;;;7.15;;
52136;SDS011;38130;49.012;8.368;2022-08-18T03:49:09;9.05;;;7.22;;
52136;SDS011;38130;49.012;8.368;2022-08-18T03:51:36;8.15;;;7.38;;
52136;SDS011;38130;49.012;8.368;2022-08-18T03:54:03;9.90;;;7.10;;
52136;SDS011;38130;49.012;8.368;2022-08-18T03:56:32;9.07;;;7.90;;
52136;SDS011;38130;49.012;8.368;2022-08-18T03:59:07;8.68;;;7.00;;
52136;SDS011;38130;49.012;8.368;2022-08-18T04:01:37;8.85;;;7.78;;
52136;SDS011;38130;49.012;8.368;2022-08-18T04:04:07;12.55;;;8.30;;
52136;SDS011;38130;49.012;8.368;2022-08-18T04:06:37;12.20;;;8.82;;
52136;SDS011;38130;49.012;8.368;2022-08-18T04:09:11;8.57;;;7.60;;
52136;SDS011;38130;49.012;8.368;2022-08-18T04:11:39;8.75;;;7.85;;
52136;SDS011;38130;49.012;8.368;2022-08-18T04:14:11;8.60;;;7.53;;
52136;SDS011;38130;49.012;8.368;2022-08-18T04:16:42;10.30;;;7.95;;
52136;SDS011;38130;49.012;8.368;2022-08-18T04:19:10;8.20;;;7.40;;
52136;SDS011;38130;49.012;8.368;2022-08-18T04:21:39;8.50;;;7.68;;
52136;SDS011;38130;49.012;8.368;2022-08-18T04:24:07;11.20;;;8.40;;
52136;SDS011;38130;49.012;8.368;2022-08-18T04:26:43;8.07;;;7.15;;
52136;SDS011;38130;49.012;8.368;2022-08-18T04:29:12;7.60;;;6.90;;
52136;SDS011;38130;49.012;8.368;2022-08-18T04:31:40;9.18;;;7.78;;
52136;SDS011;38130;49.012;8.368;2022-08-18T04:34:06;9.20;;;7.70;;
52136;SDS011;38130;49.012;8.368;2022-08-18T04:36:34;9.00;;;6.93;;
52136;SDS011;38130;49.012;8.368;2022-08-18T04:39:03;8.93;;;6.88;;
52136;SDS011;38130;49.012;8.368;2022-08-18T04:41:32;7.72;;;6.93;;
52136;SDS011;38130;49.012;8.368;2022-08-18T04:44:00;8.27;;;7.47;;
52136;SDS011;38130;49.012;8.368;2022-08-18T04:46:31;8.73;;;7.38;;
52136;SDS011;38130;49.012;8.368;2022-08-18T04:49:01;7.97;;;7.18;;
52136;SDS011;38130;49.012;8.368;2022-08-18T04:51:28;8.25;;;7.43;;
52136;SDS011;38130;49.012;8.368;2022-08-18T04:54:15;8.10;;;7.30;;
52136;SDS011;38130;49.012;8.368;2022-08-18T04:56:42;10.35;;;7.32;;
52136;SDS011;38130;49.012;8.368;2022-08-18T04:59:09;7.47;;;6.78;;
52136;SDS011;38130;49.012;8.368;2022-08-18T05:01:42;7.75;;;6.93;;
52136;SDS011;38130;49.012;8.368;2022-08-18T05:04:14;9.52;;;6.97;;
52136;SDS011;38130;49.012;8.368;2022-08-18T05:06:42;9.70;;;7.13;;
52136;SDS011;38130;49.012;8.368;2022-08-18T05:09:10;8.32;;;7.55;;
52136;SDS011;38130;49.012;8.368;2022-08-18T05:11:48;10.05;;;7.82;;
52136;SDS011;38130;49.012;8.368;2022-08-18T05:14:15;10.38;;;7.53;;
52136;SDS011;38130;49.012;8.368;2022-08-18T05:16:42;9.77;;;8.05;;
52136;SDS011;38130;49.012;8.368;2022-08-18T05:19:14;10.35;;;7.28;;
52136;SDS011;38130;49.012;8.368;2022-08-18T05:21:48;7.38;;;6.68;;
52136;SDS011;38130;49.012;8.368;2022-08-18T05:24:17;10.32;;;7.25;;
52136;SDS011;38130;49.012;8.368;2022-08-18T05:26:47;9.40;;;7.13;;
52136;SDS011;38130;49.012;8.368;2022-08-18T05:29:14;7.65;;;6.95;;
52136;SDS011;38130;49.012;8.368;2022-08-18T05:31:45;13.38;;;7.75;;
52136;SDS011;38130;49.012;8.368;2022-08-18T05:34:13;9.30;;;7.28;;
52136;SDS011;38130;49.012;8.368;2022-08-18T05:39:23;7.88;;;6.95;;
52136;SDS011;38130;49.012;8.368;2022-08-18T05:44:35;9.57;;;7.28;;
52136;SDS011;38130;49.012;8.368;2022-08-18T05:47:12;7.95;;;7.15;;
52136;SDS011;38130;49.012;8.368;2022-08-18T05:49:43;8.00;;;7.22;;
52136;SDS011;38130;49.012;8.368;2022-08-18T05:52:13;8.80;;;7.30;;
52136;SDS011;38130;49.012;8.368;2022-08-18T05:54:51;9.25;;;7.65;;
52136;SDS011;38130;49.012;8.368;2022-08-18T05:57:44;9.75;;;8.20;;
52136;SDS011;38130;49.012;8.368;2022-08-18T06:00:18;12.60;;;10.45;;
52136;SDS011;38130;49.012;8.368;2022-08-18T06:02:53;8.50;;;7.60;;
52136;SDS011;38130;49.012;8.368;2022-08-18T06:05:29;8.65;;;7.65;;
52136;SDS011;38130;49.012;8.368;2022-08-18T06:07:59;11.80;;;7.60;;
52136;SDS011;38130;49.012;8.368;2022-08-18T06:10:29;9.95;;;8.88;;
52136;SDS011;38130;49.012;8.368;2022-08-18T06:12:57;8.77;;;7.72;;
52136;SDS011;38130;49.012;8.368;2022-08-18T06:24:07;10.57;;;8.27;;
52136;SDS011;38130;49.012;8.368;2022-08-18T06:37:41;10.07;;;9.07;;
52136;SDS011;38130;49.012;8.368;2022-08-18T06:40:28;9.10;;;8.15;;
52136;SDS011;38130;49.012;8.368;2022-08-18T06:42:54;10.55;;;8.35;;
52136;SDS011;38130;49.012;8.368;2022-08-18T06:45:30;9.52;;;8.50;;
52136;SDS011;38130;49.012;8.368;2022-08-18T06:50:48;8.48;;;7.20;;
52136;SDS011;38130;49.012;8.368;2022-08-18T06:53:17;11.85;;;8.02;;
52136;SDS011;38130;49.012;8.368;2022-08-18T06:55:53;10.73;;;9.63;;
52136;SDS011;38130;49.012;8.368;2022-08-18T06:58:21;8.85;;;7.97;;
52136;SDS011;38130;49.012;8.368;2022-08-18T07:03:43;11.07;;;7.78;;
52136;SDS011;38130;49.012;8.368;2022-08-18T07:08:50;8.52;;;7.55;;
52136;SDS011;38130;49.012;8.368;2022-08-18T07:11:20;9.70;;;8.18;;
52136;SDS011;38130;49.012;8.368;2022-08-18T07:16:42;10.07;;;8.52;;
52136;SDS011;38130;49.012;8.368;2022-08-18T07:19:29;8.77;;;7.82;;
52136;SDS011;38130;49.012;8.368;2022-08-18T07:22:05;9.43;;;8.15;;
52136;SDS011;38130;49.012;8.368;2022-08-18T07:24:41;9.55;;;7.78;;
52136;SDS011;38130;49.012;8.368;2022-08-18T07:27:21;11.82;;;8.70;;
52136;SDS011;38130;49.012;8.368;2022-08-18T07:30:24;10.20;;;9.10;;
52136;SDS011;38130;49.012;8.368;2022-08-18T07:32:57;12.57;;;8.98;;
52136;SDS011;38130;49.012;8.368;2022-08-18T07:35:45;9.75;;;8.70;;
52136;SDS011;38130;49.012;8.368;2022-08-18T07:38:22;10.73;;;8.25;;
52136;SDS011;38130;49.012;8.368;2022-08-18T07:41:15;9.45;;;7.93;;
52136;SDS011;38130;49.012;8.368;2022-08-18T07:43:51;9.18;;;7.65;;
52136;SDS011;38130;49.012;8.368;2022-08-18T07:49:15;9.65;;;8.00;;
52136;SDS011;38130;49.012;8.368;2022-08-18T07:57:37;10.68;;;8.27;;
52136;SDS011;38130;49.012;8.368;2022-08-18T08:00:31;9.45;;;7.65;;
52136;SDS011;38130;49.012;8.368;2022-08-18T08:03:29;9.77;;;8.75;;
52136;SDS011;38130;49.012;8.368;2022-08-18T08:06:12;8.68;;;7.88;;
52136;SDS011;38130;49.012;8.368;2022-08-18T08:08:49;9.10;;;8.20;;
52136;SDS011;38130;49.012;8.368;2022-08-18T08:14:23;8.85;;;7.85;;
52136;SDS011;38130;49.012;8.368;2022-08-18T08:17:48;9.68;;;8.00;;
52136;SDS011;38130;49.012;8.368;2022-08-18T08:25:25;8.07;;;7.22;;
52136;SDS011;38130;49.012;8.368;2022-08-18T08:28:19;9.18;;;7.28;;
52136;SDS011;38130;49.012;8.368;2022-08-18T08:34:11;9.33;;;7.47;;
52136;SDS011;38130;49.012;8.368;2022-08-18T08:36:42;11.90;;;8.23;;
52136;SDS011;38130;49.012;8.368;2022-08-18T08:39:13;8.88;;;7.55;;
52136;SDS011;38130;49.012;8.368;2022-08-18T08:41:49;8.43;;;7.47;;
52136;SDS011;38130;49.012;8.368;2022-08-18T08:47:41;9.23;;;7.60;;
52136;SDS011;38130;49.012;8.368;2022-08-18T08:50:16;8.63;;;6.97;;
52136;SDS011;38130;49.012;8.368;2022-08-18T08:55:52;8.73;;;7.82;;
52136;SDS011;38130;49.012;8.368;2022-08-18T09:01:34;12.20;;;8.18;;
52136;SDS011;38130;49.012;8.368;2022-08-18T09:10:00;11.13;;;9.80;;
52136;SDS011;38130;49.012;8.368;2022-08-18T09:12:55;11.30;;;8.85;;
52136;SDS011;38130;49.012;8.368;2022-08-18T09:15:34;10.40;;;9.30;;
52136;SDS011;38130;49.012;8.368;2022-08-18T09:23:29;12.18;;;9.95;;
52136;SDS011;38130;49.012;8.368;2022-08-18T09:26:20;12.80;;;10.90;;
52136;SDS011;38130;49.012;8.368;2022-08-18T09:29:24;11.23;;;10.13;;
52136;SDS011;38130;49.012;8.368;2022-08-18T09:37:46;15.13;;;12.53;;
52136;SDS011;38130;49.012;8.368;2022-08-18T09:43:35;13.13;;;11.48;;
52136;SDS011;38130;49.012;8.368;2022-08-18T09:46:05;14.93;;;12.68;;
52136;SDS011;38130;49.012;8.368;2022-08-18T09:48:38;22.10;;;14.93;;
52136;SDS011;38130;49.012;8.368;2022-08-18T09:56:16;15.45;;;12.48;;
52136;SDS011;38130;49.012;8.368;2022-08-18T10:02:00;15.80;;;13.52;;
52136;SDS011;38130;49.012;8.368;2022-08-18T10:04:47;19.58;;;14.32;;
52136;SDS011;38130;49.012;8.368;2022-08-18T10:07:34;17.90;;;14.82;;
52136;SDS011;38130;49.012;8.368;2022-08-18T10:10:20;17.38;;;14.15;;
52136;SDS011;38130;49.012;8.368;2022-08-18T10:16:13;20.48;;;17.35;;
52136;SDS011;38130;49.012;8.368;2022-08-18T10:22:39;22.13;;;16.30;;
52136;SDS011;38130;49.012;8.368;2022-08-18T10:25:09;29.23;;;22.55;;
52136;SDS011;38130;49.012;8.368;2022-08-18T10:27:52;18.83;;;14.93;;
52136;SDS011;38130;49.012;8.368;2022-08-18T10:33:14;17.17;;;15.38;;
52136;SDS011;38130;49.012;8.368;2022-08-18T10:39:10;25.48;;;20.02;;
52136;SDS011;38130;49.012;8.368;2022-08-18T10:41:47;20.80;;;17.25;;
52136;SDS011;38130;49.012;8.368;2022-08-18T10:44:23;18.07;;;16.20;;
52136;SDS011;38130;49.012;8.368;2022-08-18T10:47:24;20.83;;;17.80;;
52136;SDS011;38130;49.012;8.368;2022-08-18T10:49:59;20.67;;;18.65;;
52136;SDS011;38130;49.012;8.368;2022-08-18T10:55:48;19.30;;;17.42;;
52136;SDS011;38130;49.012;8.368;2022-08-18T10:59:19;22.63;;;16.65;;
52136;SDS011;38130;49.012;8.368;2022-08-18T11:01:27;18.98;;;16.75;;
52136;SDS011;38130;49.012;8.368;2022-08-18T11:07:20;23.97;;;18.33;;
52136;SDS011;38130;49.012;8.368;2022-08-18T11:09:48;23.98;;;21.27;;
52136;SDS011;38130;49.012;8.368;2022-08-18T11:12:45;23.45;;;20.95;;
52136;SDS011;38130;49.012;8.368;2022-08-18T11:18:46;23.35;;;20.95;;
52136;SDS011;38130;49.012;8.368;2022-08-18T11:24:16;22.73;;;19.70;;
52136;SDS011;38130;49.012;8.368;2022-08-18T11:26:55;19.98;;;17.92;;
52136;SDS011;38130;49.012;8.368;2022-08-18T11:31:56;20.63;;;18.50;;
52136;SDS011;38130;49.012;8.368;2022-08-18T11:37:25;20.17;;;18.08;;
52136;SDS011;38130;49.012;8.368;2022-08-18T11:43:15;20.13;;;18.20;;
52136;SDS011;38130;49.012;8.368;2022-08-18T11:45:52;21.35;;;19.17;;
52136;SDS011;38130;49.012;8.368;2022-08-18T11:48:31;20.00;;;18.00;;
52136;SDS011;38130;49.012;8.368;2022-08-18T11:53:58;23.38;;;20.98;;
52136;SDS011;38130;49.012;8.368;2022-08-18T11:56:44;22.13;;;19.92;;
52136;SDS011;38130;49.012;8.368;2022-08-18T12:02:22;23.55;;;20.20;;
52136;SDS011;38130;49.012;8.368;2022-08-18T12:04:52;18.60;;;16.73;;
52136;SDS011;38130;49.012;8.368;2022-08-18T12:07:27;20.08;;;17.98;;
52136;SDS011;38130;49.012;8.368;2022-08-18T12:12:45;18.77;;;16.88;;
52136;SDS011;38130;49.012;8.368;2022-08-18T12:17:50;19.70;;;17.75;;
52136;SDS011;38130;49.012;8.368;2022-08-18T12:20:18;38.28;;;20.90;;
52136;SDS011;38130;49.012;8.368;2022-08-18T12:22:45;26.42;;;20.00;;
52136;SDS011;38130;49.012;8.368;2022-08-18T12:25:15;22.63;;;19.10;;
52136;SDS011;38130;49.012;8.368;2022-08-18T12:27:50;26.02;;;17.58;;
52136;SDS011;38130;49.012;8.368;2022-08-18T12:30:17;23.10;;;20.65;;
52136;SDS011;38130;49.012;8.368;2022-08-18T12:32:45;22.52;;;19.73;;
52136;SDS011;38130;49.012;8.368;2022-08-18T12:35:31;20.55;;;18.45;;
52136;SDS011;38130;49.012;8.368;2022-08-18T12:38:00;21.95;;;19.58;;
52136;SDS011;38130;49.012;8.368;2022-08-18T12:40:38;21.17;;;19.02;;
52136;SDS011;38130;49.012;8.368;2022-08-18T12:43:06;25.38;;;22.63;;
52136;SDS011;38130;49.012;8.368;2022-08-18T12:45:32;19.20;;;17.20;;
52136;SDS011;38130;49.012;8.368;2022-08-18T12:48:02;20.33;;;18.23;;
52136;SDS011;38130;49.012;8.368;2022-08-18T12:50:49;26.50;;;23.73;;
52136;SDS011;38130;49.012;8.368;2022-08-18T12:53:24;21.42;;;19.15;;
52136;SDS011;38130;49.012;8.368;2022-08-18T12:56:04;24.08;;;21.33;;
52136;SDS011;38130;49.012;8.368;2022-08-18T12:58:35;23.13;;;20.77;;
52136;SDS011;38130;49.012;8.368;2022-08-18T13:01:05;18.15;;;16.42;;
52136;SDS011;38130;49.012;8.368;2022-08-18T13:03:32;20.27;;;18.38;;
52136;SDS011;38130;49.012;8.368;2022-08-18T13:06:19;20.10;;;18.17;;
52136;SDS011;38130;49.012;8.368;2022-08-18T13:08:45;18.85;;;17.05;;
52136;SDS011;38130;49.012;8.368;2022-08-18T13:11:17;16.70;;;15.05;;
52136;SDS011;38130;49.012;8.368;2022-08-18T13:13:49;17.90;;;15.57;;
52136;SDS011;38130;49.012;8.368;2022-08-18T13:16:21;16.02;;;14.50;;
52136;SDS011;38130;49.012;8.368;2022-08-18T13:19:04;16.40;;;14.73;;
52136;SDS011;38130;49.012;8.368;2022-08-18T13:21:32;15.38;;;13.88;;
52136;SDS011;38130;49.012;8.368;2022-08-18T13:24:06;18.85;;;15.35;;
52136;SDS011;38130;49.012;8.368;2022-08-18T13:26:36;15.52;;;14.02;;
52136;SDS011;38130;49.012;8.368;2022-08-18T13:29:06;15.32;;;13.70;;
52136;SDS011;38130;49.012;8.368;2022-08-18T13:31:35;16.95;;;15.43;;
52136;SDS011;38130;49.012;8.368;2022-08-18T13:34:03;20.30;;;16.70;;
52136;SDS011;38130;49.012;8.368;2022-08-18T13:36:44;16.40;;;13.63;;
52136;SDS011;38130;49.012;8.368;2022-08-18T13:39:13;15.07;;;13.13;;
52136;SDS011;38130;49.012;8.368;2022-08-18T13:41:45;13.80;;;12.40;;
52136;SDS011;38130;49.012;8.368;2022-08-18T13:44:14;14.55;;;12.73;;
52136;SDS011;38130;49.012;8.368;2022-08-18T13:46:45;21.75;;;12.70;;
52136;SDS011;38130;49.012;8.368;2022-08-18T13:49:12;18.85;;;13.10;;
52136;SDS011;38130;49.012;8.368;2022-08-18T13:51:44;25.05;;;13.98;;
52136;SDS011;38130;49.012;8.368;2022-08-18T13:54:15;16.77;;;14.90;;
52136;SDS011;38130;49.012;8.368;2022-08-18T13:56:56;16.35;;;12.95;;
52136;SDS011;38130;49.012;8.368;2022-08-18T13:59:23;18.25;;;13.57;;
52136;SDS011;38130;49.012;8.368;2022-08-18T14:01:52;16.35;;;13.68;;
52136;SDS011;38130;49.012;8.368;2022-08-18T14:04:19;16.23;;;14.55;;
52136;SDS011;38130;49.012;8.368;2022-08-18T14:06:51;15.98;;;14.35;;
52136;SDS011;38130;49.012;8.368;2022-08-18T14:09:22;15.27;;;13.73;;
52136;SDS011;38130;49.012;8.368;2022-08-18T14:12:06;16.20;;;14.50;;
52136;SDS011;38130;49.012;8.368;2022-08-18T14:14:50;14.45;;;12.95;;
52136;SDS011;38130;49.012;8.368;2022-08-18T14:17:19;16.70;;;14.63;;
52136;SDS011;38130;49.012;8.368;2022-08-18T14:19:48;15.38;;;13.90;;
52136;SDS011;38130;49.012;8.368;2022-08-18T14:22:46;14.05;;;12.77;;
52136;SDS011;38130;49.012;8.368;2022-08-18T14:25:33;13.45;;;12.05;;
52136;SDS011;38130;49.012;8.368;2022-08-18T14:28:17;14.07;;;12.00;;
52136;SDS011;38130;49.012;8.368;2022-08-18T14:30:50;14.45;;;13.02;;
52136;SDS011;38130;49.012;8.368;2022-08-18T14:33:20;14.95;;;13.55;;
52136;SDS011;38130;49.012;8.368;2022-08-18T14:36:08;14.55;;;12.70;;
52136;SDS011;38130;49.012;8.368;2022-08-18T14:38:35;13.45;;;12.15;;
52136;SDS011;38130;49.012;8.368;2022-08-18T14:41:08;12.65;;;11.38;;
52136;SDS011;38130;49.012;8.368;2022-08-18T14:43:38;13.23;;;12.02;;
52136;SDS011;38130;49.012;8.368;2022-08-18T14:46:24;13.23;;;12.02;;
52136;SDS011;38130;49.012;8.368;2022-08-18T14:48:57;13.88;;;12.60;;
52136;SDS011;38130;49.012;8.368;2022-08-18T14:51:24;14.00;;;12.55;;
52136;SDS011;38130;49.012;8.368;2022-08-18T14:53:52;14.68;;;13.27;;
52136;SDS011;38130;49.012;8.368;2022-08-18T14:56:20;12.93;;;11.73;;
52136;SDS011;38130;49.012;8.368;2022-08-18T14:58:49;17.98;;;12.48;;
52136;SDS011;38130;49.012;8.368;2022-08-18T15:01:16;13.98;;;12.65;;
52136;SDS011;38130;49.012;8.368;2022-08-18T15:03:43;13.73;;;11.57;;
52136;SDS011;38130;49.012;8.368;2022-08-18T15:06:10;15.55;;;12.85;;
52136;SDS011;38130;49.012;8.368;2022-08-18T15:08:48;12.38;;;11.13;;
52136;SDS011;38130;49.012;8.368;2022-08-18T15:11:15;14.43;;;12.95;;
52136;SDS011;38130;49.012;8.368;2022-08-18T15:13:42;14.25;;;12.85;;
52136;SDS011;38130;49.012;8.368;2022-08-18T15:16:11;13.05;;;11.75;;
52136;SDS011;38130;49.012;8.368;2022-08-18T15:18:39;13.32;;;12.07;;
52136;SDS011;38130;49.012;8.368;2022-08-18T15:21:07;12.45;;;11.30;;
52136;SDS011;38130;49.012;8.368;2022-08-18T15:24:04;13.35;;;11.82;;
52136;SDS011;38130;49.012;8.368;2022-08-18T15:26:54;11.93;;;10.82;;
52136;SDS011;38130;49.012;8.368;2022-08-18T15:29:23;13.38;;;12.02;;
52136;SDS011;38130;49.012;8.368;2022-08-18T15:31:54;12.77;;;11.02;;
52136;SDS011;38130;49.012;8.368;2022-08-18T15:34:30;12.77;;;11.50;;
52136;SDS011;38130;49.012;8.368;2022-08-18T15:36:57;11.85;;;10.73;;
52136;SDS011;38130;49.012;8.368;2022-08-18T15:39:35;12.90;;;11.23;;
52136;SDS011;38130;49.012;8.368;2022-08-18T15:42:03;12.35;;;11.18;;
52136;SDS011;38130;49.012;8.368;2022-08-18T15:44:35;12.35;;;11.15;;
52136;SDS011;38130;49.012;8.368;2022-08-18T15:47:03;11.27;;;10.35;;
52136;SDS011;38130;49.012;8.368;2022-08-18T15:49:34;11.20;;;10.20;;
52136;SDS011;38130;49.012;8.368;2022-08-18T15:52:01;11.25;;;10.25;;
52136;SDS011;38130;49.012;8.368;2022-08-18T15:54:28;12.63;;;11.48;;
52136;SDS011;38130;49.012;8.368;2022-08-18T15:56:54;14.95;;;13.55;;
52136;SDS011;38130;49.012;8.368;2022-08-18T15:59:23;13.95;;;12.50;;
52136;SDS011;38130;49.012;8.368;2022-08-18T16:02:04;13.65;;;12.35;;
52136;SDS011;38130;49.012;8.368;2022-08-18T16:04:36;13.63;;;12.15;;
52136;SDS011;38130;49.012;8.368;2022-08-18T16:07:05;13.15;;;11.75;;
52136;SDS011;38130;49.012;8.368;2022-08-18T16:09:34;11.63;;;10.52;;
52136;SDS011;38130;49.012;8.368;2022-08-18T16:12:02;14.07;;;12.45;;
52136;SDS011;38130;49.012;8.368;2022-08-18T16:14:28;14.95;;;13.15;;
52136;SDS011;38130;49.012;8.368;2022-08-18T16:16:55;15.27;;;13.60;;
52136;SDS011;38130;49.012;8.368;2022-08-18T16:19:21;14.02;;;12.63;;
52136;SDS011;38130;49.012;8.368;2022-08-18T16:21:51;13.52;;;12.13;;
52136;SDS011;38130;49.012;8.368;2022-08-18T16:24:20;15.02;;;12.90;;
52136;SDS011;38130;49.012;8.368;2022-08-18T16:26:48;14.30;;;12.95;;
52136;SDS011;38130;49.012;8.368;2022-08-18T16:29:17;15.25;;;13.07;;
52136;SDS011;38130;49.012;8.368;2022-08-18T16:31:44;14.57;;;12.98;;
52136;SDS011;38130;49.012;8.368;2022-08-18T16:34:11;14.18;;;12.88;;
52136;SDS011;38130;49.012;8.368;2022-08-18T16:36:38;16.88;;;12.38;;
52136;SDS011;38130;49.012;8.368;2022-08-18T16:39:04;12.13;;;10.93;;
52136;SDS011;38130;49.012;8.368;2022-08-18T16:41:32;11.95;;;10.95;;
52136;SDS011;38130;49.012;8.368;2022-08-18T16:43:58;12.27;;;11.15;;
52136;SDS011;38130;49.012;8.368;2022-08-18T16:46:26;11.90;;;10.80;;
52136;SDS011;38130;49.012;8.368;2022-08-18T16:48:53;12.60;;;10.75;;
52136;SDS011;38130;49.012;8.368;2022-08-18T16:51:22;14.32;;;12.73;;
52136;SDS011;38130;49.012;8.368;2022-08-18T16:53:50;12.30;;;11.15;;
52136;SDS011;38130;49.012;8.368;2022-08-18T16:56:19;12.93;;;10.93;;
52136;SDS011;38130;49.012;8.368;2022-08-18T16:58:48;12.43;;;11.13;;
52136;SDS011;38130;49.012;8.368;2022-08-18T17:01:33;13.60;;;11.30;;
52136;SDS011;38130;49.012;8.368;2022-08-18T17:04:20;12.35;;;10.65;;
52136;SDS011;38130;49.012;8.368;2022-08-18T17:06:49;12.77;;;11.68;;
52136;SDS011;38130;49.012;8.368;2022-08-18T17:09:17;13.45;;;12.05;;
52136;SDS011;38130;49.012;8.368;2022-08-18T17:11:44;12.40;;;11.10;;
52136;SDS011;38130;49.012;8.368;2022-08-18T17:14:18;13.77;;;11.45;;
52136;SDS011;38130;49.012;8.368;2022-08-18T17:16:47;13.00;;;11.75;;
52136;SDS011;38130;49.012;8.368;2022-08-18T17:19:14;12.25;;;11.07;;
52136;SDS011;38130;49.012;8.368;2022-08-18T17:21:40;13.27;;;11.45;;
52136;SDS011;38130;49.012;8.368;2022-08-18T17:24:08;11.50;;;10.55;;
52136;SDS011;38130;49.012;8.368;2022-08-18T17:32:21;12.50;;;11.20;;